sensor_id;sensor_type;location;lat;lon;timestamp;P1;durP1;ratioP1;P2;durP2;ratioP2
32250;SDS011;41295;48.518;9.206;2022-08-26T00:00:55;11.05;;;5.47;;
32250;SDS011;41295;48.518;9.206;2022-08-26T00:02:59;9.52;;;6.20;;
32250;SDS011;41295;48.518;9.206;2022-08-26T00:05:03;10.10;;;5.65;;
32250;SDS011;41295;48.518;9.206;2022-08-26T00:07:09;11.88;;;6.13;;
32250;SDS011;41295;48.518;9.206;2022-08-26T00:09:12;9.10;;;5.97;;
32250;SDS011;41295;48.518;9.206;2022-08-26T00:11:16;13.77;;;5.95;;
32250;SDS011;41295;48.518;9.206;2022-08-26T00:13:27;8.43;;;5.90;;
32250;SDS011;41295;48.518;9.206;2022-08-26T00:15:30;6.50;;;5.65;;
32250;SDS011;41295;48.518;9.206;2022-08-26T00:17:33;8.80;;;5.55;;
32250;SDS011;41295;48.518;9.206;2022-08-26T00:19:41;7.80;;;6.28;;
32250;SDS011;41295;48.518;9.206;2022-08-26T00:21:44;8.98;;;5.78;;
32250;SDS011;41295;48.518;9.206;2022-08-26T00:23:49;7.88;;;5.80;;
32250;SDS011;41295;48.518;9.206;2022-08-26T00:25:52;7.57;;;5.78;;
32250;SDS011;41295;48.518;9.206;2022-08-26T00:27:57;8.77;;;6.03;;
32250;SDS011;41295;48.518;9.206;2022-08-26T00:29:59;7.60;;;5.22;;
32250;SDS011;41295;48.518;9.206;2022-08-26T00:32:02;8.93;;;6.28;;
32250;SDS011;41295;48.518;9.206;2022-08-26T00:34:05;9.05;;;6.38;;
32250;SDS011;41295;48.518;9.206;2022-08-26T00:36:11;8.02;;;5.60;;
32250;SDS011;41295;48.518;9.206;2022-08-26T00:38:20;9.73;;;6.00;;
32250;SDS011;41295;48.518;9.206;2022-08-26T00:40:24;9.02;;;5.80;;
32250;SDS011;41295;48.518;9.206;2022-08-26T00:42:31;10.75;;;6.00;;
32250;SDS011;41295;48.518;9.206;2022-08-26T00:44:33;8.25;;;5.65;;
32250;SDS011;41295;48.518;9.206;2022-08-26T00:46:38;12.52;;;7.28;;
32250;SDS011;41295;48.518;9.206;2022-08-26T00:48:47;9.63;;;5.90;;
32250;SDS011;41295;48.518;9.206;2022-08-26T00:50:55;8.73;;;5.80;;
32250;SDS011;41295;48.518;9.206;2022-08-26T00:53:04;7.38;;;5.97;;
32250;SDS011;41295;48.518;9.206;2022-08-26T00:55:26;9.48;;;5.90;;
32250;SDS011;41295;48.518;9.206;2022-08-26T00:57:38;9.65;;;5.80;;
32250;SDS011;41295;48.518;9.206;2022-08-26T00:59:41;8.65;;;5.57;;
32250;SDS011;41295;48.518;9.206;2022-08-26T01:01:48;8.57;;;5.45;;
32250;SDS011;41295;48.518;9.206;2022-08-26T01:03:51;8.15;;;6.10;;
32250;SDS011;41295;48.518;9.206;2022-08-26T01:05:56;7.00;;;5.78;;
32250;SDS011;41295;48.518;9.206;2022-08-26T01:08:02;11.02;;;5.72;;
32250;SDS011;41295;48.518;9.206;2022-08-26T01:10:06;8.20;;;5.70;;
32250;SDS011;41295;48.518;9.206;2022-08-26T01:12:11;10.98;;;6.30;;
32250;SDS011;41295;48.518;9.206;2022-08-26T01:14:22;7.17;;;5.70;;
32250;SDS011;41295;48.518;9.206;2022-08-26T01:16:27;10.10;;;6.32;;
32250;SDS011;41295;48.518;9.206;2022-08-26T01:18:32;11.68;;;5.43;;
32250;SDS011;41295;48.518;9.206;2022-08-26T01:20:39;7.88;;;5.47;;
32250;SDS011;41295;48.518;9.206;2022-08-26T01:22:50;7.10;;;5.45;;
32250;SDS011;41295;48.518;9.206;2022-08-26T01:24:57;5.85;;;5.28;;
32250;SDS011;41295;48.518;9.206;2022-08-26T01:27:04;7.07;;;5.43;;
32250;SDS011;41295;48.518;9.206;2022-08-26T01:29:10;7.97;;;6.20;;
32250;SDS011;41295;48.518;9.206;2022-08-26T01:31:17;8.50;;;5.90;;
32250;SDS011;41295;48.518;9.206;2022-08-26T01:33:25;8.77;;;6.22;;
32250;SDS011;41295;48.518;9.206;2022-08-26T01:35:42;7.45;;;6.10;;
32250;SDS011;41295;48.518;9.206;2022-08-26T01:37:46;11.10;;;6.50;;
32250;SDS011;41295;48.518;9.206;2022-08-26T01:39:54;6.97;;;5.75;;
32250;SDS011;41295;48.518;9.206;2022-08-26T01:41:58;8.07;;;5.45;;
32250;SDS011;41295;48.518;9.206;2022-08-26T01:44:04;7.90;;;6.07;;
32250;SDS011;41295;48.518;9.206;2022-08-26T01:46:10;8.98;;;5.82;;
32250;SDS011;41295;48.518;9.206;2022-08-26T01:48:14;8.05;;;5.88;;
32250;SDS011;41295;48.518;9.206;2022-08-26T01:50:22;8.02;;;5.90;;
32250;SDS011;41295;48.518;9.206;2022-08-26T01:52:31;10.57;;;5.72;;
32250;SDS011;41295;48.518;9.206;2022-08-26T01:54:36;8.75;;;6.00;;
32250;SDS011;41295;48.518;9.206;2022-08-26T01:56:41;10.07;;;5.68;;
32250;SDS011;41295;48.518;9.206;2022-08-26T01:58:45;9.95;;;5.68;;
32250;SDS011;41295;48.518;9.206;2022-08-26T02:00:51;7.65;;;5.57;;
32250;SDS011;41295;48.518;9.206;2022-08-26T02:02:54;6.38;;;5.45;;
32250;SDS011;41295;48.518;9.206;2022-08-26T02:05:14;8.20;;;5.72;;
32250;SDS011;41295;48.518;9.206;2022-08-26T02:07:19;6.72;;;5.35;;
32250;SDS011;41295;48.518;9.206;2022-08-26T02:09:26;6.65;;;5.68;;
32250;SDS011;41295;48.518;9.206;2022-08-26T02:11:31;8.85;;;5.70;;
32250;SDS011;41295;48.518;9.206;2022-08-26T02:13:39;10.57;;;5.72;;
32250;SDS011;41295;48.518;9.206;2022-08-26T02:15:44;10.73;;;7.32;;
32250;SDS011;41295;48.518;9.206;2022-08-26T02:17:48;8.52;;;5.70;;
32250;SDS011;41295;48.518;9.206;2022-08-26T02:19:53;8.55;;;5.97;;
32250;SDS011;41295;48.518;9.206;2022-08-26T02:21:57;7.30;;;6.28;;
32250;SDS011;41295;48.518;9.206;2022-08-26T02:24:07;9.73;;;6.05;;
32250;SDS011;41295;48.518;9.206;2022-08-26T02:26:12;8.50;;;5.97;;
32250;SDS011;41295;48.518;9.206;2022-08-26T02:28:19;8.88;;;5.82;;
32250;SDS011;41295;48.518;9.206;2022-08-26T02:30:29;7.57;;;5.75;;
32250;SDS011;41295;48.518;9.206;2022-08-26T02:32:33;9.32;;;5.57;;
32250;SDS011;41295;48.518;9.206;2022-08-26T02:34:35;6.95;;;5.80;;
32250;SDS011;41295;48.518;9.206;2022-08-26T02:36:38;8.25;;;6.05;;
32250;SDS011;41295;48.518;9.206;2022-08-26T02:38:41;9.73;;;5.72;;
32250;SDS011;41295;48.518;9.206;2022-08-26T02:40:46;7.93;;;6.15;;
32250;SDS011;41295;48.518;9.206;2022-08-26T02:42:51;8.95;;;5.75;;
32250;SDS011;41295;48.518;9.206;2022-08-26T02:44:57;8.27;;;5.43;;
32250;SDS011;41295;48.518;9.206;2022-08-26T02:47:01;8.38;;;5.70;;
32250;SDS011;41295;48.518;9.206;2022-08-26T02:49:05;7.72;;;6.03;;
32250;SDS011;41295;48.518;9.206;2022-08-26T02:51:08;9.65;;;6.10;;
32250;SDS011;41295;48.518;9.206;2022-08-26T02:53:11;8.05;;;6.35;;
32250;SDS011;41295;48.518;9.206;2022-08-26T02:55:15;7.63;;;5.57;;
32250;SDS011;41295;48.518;9.206;2022-08-26T02:57:17;12.30;;;6.10;;
32250;SDS011;41295;48.518;9.206;2022-08-26T02:59:22;7.72;;;6.00;;
32250;SDS011;41295;48.518;9.206;2022-08-26T03:01:25;8.20;;;5.80;;
32250;SDS011;41295;48.518;9.206;2022-08-26T03:03:31;8.18;;;6.13;;
32250;SDS011;41295;48.518;9.206;2022-08-26T03:05:34;11.85;;;6.70;;
32250;SDS011;41295;48.518;9.206;2022-08-26T03:07:37;10.27;;;6.13;;
32250;SDS011;41295;48.518;9.206;2022-08-26T03:09:41;10.07;;;6.38;;
32250;SDS011;41295;48.518;9.206;2022-08-26T03:11:43;10.23;;;6.13;;
32250;SDS011;41295;48.518;9.206;2022-08-26T03:13:47;9.40;;;6.45;;
32250;SDS011;41295;48.518;9.206;2022-08-26T03:15:50;8.80;;;6.70;;
32250;SDS011;41295;48.518;9.206;2022-08-26T03:17:53;10.45;;;6.35;;
32250;SDS011;41295;48.518;9.206;2022-08-26T03:19:58;9.02;;;6.93;;
32250;SDS011;41295;48.518;9.206;2022-08-26T03:22:02;10.15;;;6.80;;
32250;SDS011;41295;48.518;9.206;2022-08-26T03:24:05;11.15;;;6.60;;
32250;SDS011;41295;48.518;9.206;2022-08-26T03:26:07;9.27;;;6.78;;
32250;SDS011;41295;48.518;9.206;2022-08-26T03:28:12;13.27;;;7.00;;
32250;SDS011;41295;48.518;9.206;2022-08-26T03:30:19;9.60;;;6.60;;
32250;SDS011;41295;48.518;9.206;2022-08-26T03:32:45;7.70;;;6.30;;
32250;SDS011;41295;48.518;9.206;2022-08-26T03:34:48;10.45;;;6.90;;
32250;SDS011;41295;48.518;9.206;2022-08-26T03:36:52;9.85;;;6.35;;
32250;SDS011;41295;48.518;9.206;2022-08-26T03:38:55;8.27;;;7.05;;
32250;SDS011;41295;48.518;9.206;2022-08-26T03:40:58;15.98;;;6.85;;
32250;SDS011;41295;48.518;9.206;2022-08-26T03:43:01;11.02;;;7.60;;
32250;SDS011;41295;48.518;9.206;2022-08-26T03:45:06;11.60;;;6.85;;
32250;SDS011;41295;48.518;9.206;2022-08-26T03:47:12;9.43;;;7.13;;
32250;SDS011;41295;48.518;9.206;2022-08-26T03:49:14;8.77;;;6.65;;
32250;SDS011;41295;48.518;9.206;2022-08-26T03:51:17;14.02;;;6.88;;
32250;SDS011;41295;48.518;9.206;2022-08-26T03:53:22;8.77;;;7.00;;
32250;SDS011;41295;48.518;9.206;2022-08-26T03:55:27;13.35;;;6.72;;
32250;SDS011;41295;48.518;9.206;2022-08-26T03:57:32;9.65;;;6.50;;
32250;SDS011;41295;48.518;9.206;2022-08-26T03:59:35;12.90;;;6.72;;
32250;SDS011;41295;48.518;9.206;2022-08-26T04:01:41;11.20;;;7.40;;
32250;SDS011;41295;48.518;9.206;2022-08-26T04:03:44;10.30;;;7.55;;
32250;SDS011;41295;48.518;9.206;2022-08-26T04:06:00;8.18;;;6.82;;
32250;SDS011;41295;48.518;9.206;2022-08-26T04:08:06;10.15;;;5.93;;
32250;SDS011;41295;48.518;9.206;2022-08-26T04:10:13;9.93;;;7.13;;
32250;SDS011;41295;48.518;9.206;2022-08-26T04:12:20;10.10;;;6.88;;
32250;SDS011;41295;48.518;9.206;2022-08-26T04:14:25;12.60;;;6.65;;
32250;SDS011;41295;48.518;9.206;2022-08-26T04:16:28;12.00;;;6.72;;
32250;SDS011;41295;48.518;9.206;2022-08-26T04:18:31;13.18;;;7.07;;
32250;SDS011;41295;48.518;9.206;2022-08-26T04:20:37;20.13;;;6.85;;
32250;SDS011;41295;48.518;9.206;2022-08-26T04:22:40;14.40;;;6.63;;
32250;SDS011;41295;48.518;9.206;2022-08-26T04:24:43;9.48;;;6.05;;
32250;SDS011;41295;48.518;9.206;2022-08-26T04:26:48;15.77;;;6.35;;
32250;SDS011;41295;48.518;9.206;2022-08-26T04:28:51;9.68;;;6.57;;
32250;SDS011;41295;48.518;9.206;2022-08-26T04:30:56;11.10;;;6.07;;
32250;SDS011;41295;48.518;9.206;2022-08-26T04:32:59;8.20;;;6.47;;
32250;SDS011;41295;48.518;9.206;2022-08-26T04:35:13;11.07;;;7.35;;
32250;SDS011;41295;48.518;9.206;2022-08-26T04:37:15;11.32;;;7.32;;
32250;SDS011;41295;48.518;9.206;2022-08-26T04:39:18;11.77;;;6.18;;
32250;SDS011;41295;48.518;9.206;2022-08-26T04:41:21;10.00;;;6.75;;
32250;SDS011;41295;48.518;9.206;2022-08-26T04:43:26;7.32;;;5.90;;
32250;SDS011;41295;48.518;9.206;2022-08-26T04:45:30;9.43;;;6.80;;
32250;SDS011;41295;48.518;9.206;2022-08-26T04:47:36;8.75;;;6.55;;
32250;SDS011;41295;48.518;9.206;2022-08-26T04:49:39;8.43;;;6.10;;
32250;SDS011;41295;48.518;9.206;2022-08-26T04:51:42;9.88;;;6.68;;
32250;SDS011;41295;48.518;9.206;2022-08-26T04:53:44;6.90;;;5.72;;
32250;SDS011;41295;48.518;9.206;2022-08-26T04:55:47;9.95;;;6.72;;
32250;SDS011;41295;48.518;9.206;2022-08-26T04:57:55;10.60;;;6.25;;
32250;SDS011;41295;48.518;9.206;2022-08-26T04:59:59;10.77;;;6.38;;
32250;SDS011;41295;48.518;9.206;2022-08-26T05:02:03;11.95;;;6.50;;
32250;SDS011;41295;48.518;9.206;2022-08-26T05:04:07;10.93;;;7.00;;
32250;SDS011;41295;48.518;9.206;2022-08-26T05:06:09;10.52;;;6.65;;
32250;SDS011;41295;48.518;9.206;2022-08-26T05:08:13;8.25;;;6.30;;
32250;SDS011;41295;48.518;9.206;2022-08-26T05:10:16;8.68;;;6.32;;
32250;SDS011;41295;48.518;9.206;2022-08-26T05:12:19;9.63;;;6.85;;
32250;SDS011;41295;48.518;9.206;2022-08-26T05:14:23;10.32;;;6.40;;
32250;SDS011;41295;48.518;9.206;2022-08-26T05:16:27;10.23;;;6.13;;
32250;SDS011;41295;48.518;9.206;2022-08-26T05:18:31;8.70;;;5.68;;
32250;SDS011;41295;48.518;9.206;2022-08-26T05:20:37;9.57;;;6.30;;
32250;SDS011;41295;48.518;9.206;2022-08-26T05:22:40;10.68;;;6.30;;
32250;SDS011;41295;48.518;9.206;2022-08-26T05:24:43;11.10;;;7.13;;
32250;SDS011;41295;48.518;9.206;2022-08-26T05:26:46;9.75;;;6.72;;
32250;SDS011;41295;48.518;9.206;2022-08-26T05:28:49;11.05;;;6.35;;
32250;SDS011;41295;48.518;9.206;2022-08-26T05:30:55;8.88;;;6.80;;
32250;SDS011;41295;48.518;9.206;2022-08-26T05:32:59;7.90;;;6.18;;
32250;SDS011;41295;48.518;9.206;2022-08-26T05:35:03;9.98;;;6.72;;
32250;SDS011;41295;48.518;9.206;2022-08-26T05:37:09;13.80;;;6.40;;
32250;SDS011;41295;48.518;9.206;2022-08-26T05:39:13;11.45;;;6.22;;
32250;SDS011;41295;48.518;9.206;2022-08-26T05:41:17;6.68;;;5.90;;
32250;SDS011;41295;48.518;9.206;2022-08-26T05:43:21;10.02;;;6.15;;
32250;SDS011;41295;48.518;9.206;2022-08-26T05:45:24;7.85;;;6.25;;
32250;SDS011;41295;48.518;9.206;2022-08-26T05:47:28;11.80;;;6.07;;
32250;SDS011;41295;48.518;9.206;2022-08-26T05:49:32;9.38;;;5.97;;
32250;SDS011;41295;48.518;9.206;2022-08-26T05:51:43;7.90;;;5.60;;
32250;SDS011;41295;48.518;9.206;2022-08-26T05:53:48;10.23;;;5.97;;
32250;SDS011;41295;48.518;9.206;2022-08-26T05:55:55;11.98;;;5.82;;
32250;SDS011;41295;48.518;9.206;2022-08-26T05:57:58;14.77;;;6.18;;
32250;SDS011;41295;48.518;9.206;2022-08-26T06:00:03;11.95;;;6.35;;
32250;SDS011;41295;48.518;9.206;2022-08-26T06:02:06;7.63;;;6.82;;
32250;SDS011;41295;48.518;9.206;2022-08-26T06:04:09;7.57;;;6.20;;
32250;SDS011;41295;48.518;9.206;2022-08-26T06:06:14;13.40;;;6.13;;
32250;SDS011;41295;48.518;9.206;2022-08-26T06:08:27;7.18;;;5.72;;
32250;SDS011;41295;48.518;9.206;2022-08-26T06:10:30;10.70;;;5.75;;
32250;SDS011;41295;48.518;9.206;2022-08-26T06:12:33;10.90;;;5.88;;
32250;SDS011;41295;48.518;9.206;2022-08-26T06:14:36;8.40;;;6.38;;
32250;SDS011;41295;48.518;9.206;2022-08-26T06:16:40;8.38;;;6.45;;
32250;SDS011;41295;48.518;9.206;2022-08-26T06:18:45;8.75;;;6.32;;
32250;SDS011;41295;48.518;9.206;2022-08-26T06:20:48;10.38;;;6.88;;
32250;SDS011;41295;48.518;9.206;2022-08-26T06:22:59;19.63;;;7.95;;
32250;SDS011;41295;48.518;9.206;2022-08-26T06:25:21;9.60;;;6.88;;
32250;SDS011;41295;48.518;9.206;2022-08-26T06:27:39;14.43;;;7.47;;
32250;SDS011;41295;48.518;9.206;2022-08-26T06:29:42;11.10;;;8.15;;
32250;SDS011;41295;48.518;9.206;2022-08-26T06:31:44;9.00;;;7.03;;
32250;SDS011;41295;48.518;9.206;2022-08-26T06:33:48;9.77;;;7.38;;
32250;SDS011;41295;48.518;9.206;2022-08-26T06:35:52;11.77;;;7.38;;
32250;SDS011;41295;48.518;9.206;2022-08-26T06:37:54;9.10;;;6.90;;
32250;SDS011;41295;48.518;9.206;2022-08-26T06:39:59;11.50;;;6.78;;
32250;SDS011;41295;48.518;9.206;2022-08-26T06:42:04;12.07;;;6.97;;
32250;SDS011;41295;48.518;9.206;2022-08-26T06:44:07;8.30;;;6.93;;
32250;SDS011;41295;48.518;9.206;2022-08-26T06:46:10;8.77;;;7.28;;
32250;SDS011;41295;48.518;9.206;2022-08-26T06:48:15;11.43;;;7.07;;
32250;SDS011;41295;48.518;9.206;2022-08-26T06:50:20;9.68;;;6.80;;
32250;SDS011;41295;48.518;9.206;2022-08-26T06:52:22;11.98;;;7.07;;
32250;SDS011;41295;48.518;9.206;2022-08-26T06:54:25;10.88;;;7.15;;
32250;SDS011;41295;48.518;9.206;2022-08-26T06:56:33;8.73;;;6.68;;
32250;SDS011;41295;48.518;9.206;2022-08-26T06:58:37;9.10;;;6.22;;
32250;SDS011;41295;48.518;9.206;2022-08-26T07:00:40;8.75;;;6.50;;
32250;SDS011;41295;48.518;9.206;2022-08-26T07:02:47;15.15;;;6.63;;
32250;SDS011;41295;48.518;9.206;2022-08-26T07:04:50;10.55;;;6.07;;
32250;SDS011;41295;48.518;9.206;2022-08-26T07:06:56;12.35;;;5.97;;
32250;SDS011;41295;48.518;9.206;2022-08-26T07:09:01;9.35;;;6.47;;
32250;SDS011;41295;48.518;9.206;2022-08-26T07:11:10;8.60;;;6.63;;
32250;SDS011;41295;48.518;9.206;2022-08-26T07:13:14;8.95;;;6.45;;
32250;SDS011;41295;48.518;9.206;2022-08-26T07:15:30;9.35;;;6.25;;
32250;SDS011;41295;48.518;9.206;2022-08-26T07:17:33;11.52;;;6.32;;
32250;SDS011;41295;48.518;9.206;2022-08-26T07:19:36;11.13;;;6.50;;
32250;SDS011;41295;48.518;9.206;2022-08-26T07:21:39;11.02;;;6.70;;
32250;SDS011;41295;48.518;9.206;2022-08-26T07:23:42;8.35;;;6.25;;
32250;SDS011;41295;48.518;9.206;2022-08-26T07:25:47;10.25;;;6.15;;
32250;SDS011;41295;48.518;9.206;2022-08-26T07:27:49;8.32;;;6.30;;
32250;SDS011;41295;48.518;9.206;2022-08-26T07:29:56;9.30;;;6.35;;
32250;SDS011;41295;48.518;9.206;2022-08-26T07:31:58;8.68;;;6.25;;
32250;SDS011;41295;48.518;9.206;2022-08-26T07:34:01;9.30;;;5.75;;
32250;SDS011;41295;48.518;9.206;2022-08-26T07:36:05;7.43;;;6.15;;
32250;SDS011;41295;48.518;9.206;2022-08-26T07:38:09;9.35;;;5.93;;
32250;SDS011;41295;48.518;9.206;2022-08-26T07:40:14;14.45;;;5.80;;
32250;SDS011;41295;48.518;9.206;2022-08-26T07:42:19;12.10;;;6.00;;
32250;SDS011;41295;48.518;9.206;2022-08-26T07:44:22;19.42;;;5.88;;
32250;SDS011;41295;48.518;9.206;2022-08-26T07:46:28;11.38;;;5.35;;
32250;SDS011;41295;48.518;9.206;2022-08-26T07:48:31;10.02;;;5.93;;
32250;SDS011;41295;48.518;9.206;2022-08-26T07:50:34;11.00;;;5.80;;
32250;SDS011;41295;48.518;9.206;2022-08-26T07:52:50;9.35;;;5.45;;
32250;SDS011;41295;48.518;9.206;2022-08-26T07:54:53;6.47;;;5.70;;
32250;SDS011;41295;48.518;9.206;2022-08-26T07:56:57;11.00;;;5.35;;
32250;SDS011;41295;48.518;9.206;2022-08-26T07:58:59;7.07;;;5.57;;
32250;SDS011;41295;48.518;9.206;2022-08-26T08:01:03;10.73;;;5.75;;
32250;SDS011;41295;48.518;9.206;2022-08-26T08:03:09;8.20;;;5.00;;
32250;SDS011;41295;48.518;9.206;2022-08-26T08:05:12;5.93;;;5.20;;
32250;SDS011;41295;48.518;9.206;2022-08-26T08:07:17;7.38;;;5.22;;
32250;SDS011;41295;48.518;9.206;2022-08-26T08:09:20;6.47;;;5.47;;
32250;SDS011;41295;48.518;9.206;2022-08-26T08:11:25;7.80;;;5.28;;
32250;SDS011;41295;48.518;9.206;2022-08-26T08:13:30;8.73;;;5.40;;
32250;SDS011;41295;48.518;9.206;2022-08-26T08:15:33;6.90;;;5.60;;
32250;SDS011;41295;48.518;9.206;2022-08-26T08:17:38;8.43;;;5.90;;
32250;SDS011;41295;48.518;9.206;2022-08-26T08:19:45;8.13;;;5.38;;
32250;SDS011;41295;48.518;9.206;2022-08-26T08:21:48;8.02;;;5.10;;
32250;SDS011;41295;48.518;9.206;2022-08-26T08:23:51;16.80;;;5.88;;
32250;SDS011;41295;48.518;9.206;2022-08-26T08:25:58;10.80;;;5.13;;
32250;SDS011;41295;48.518;9.206;2022-08-26T08:28:02;10.23;;;5.32;;
32250;SDS011;41295;48.518;9.206;2022-08-26T08:30:06;7.15;;;5.00;;
32250;SDS011;41295;48.518;9.206;2022-08-26T08:32:14;9.32;;;5.30;;
32250;SDS011;41295;48.518;9.206;2022-08-26T08:34:17;7.82;;;5.38;;
32250;SDS011;41295;48.518;9.206;2022-08-26T08:36:23;8.15;;;5.60;;
32250;SDS011;41295;48.518;9.206;2022-08-26T08:38:36;9.38;;;5.35;;
32250;SDS011;41295;48.518;9.206;2022-08-26T08:40:39;13.90;;;5.63;;
32250;SDS011;41295;48.518;9.206;2022-08-26T08:42:43;8.20;;;5.28;;
32250;SDS011;41295;48.518;9.206;2022-08-26T08:44:48;13.35;;;5.32;;
32250;SDS011;41295;48.518;9.206;2022-08-26T08:46:55;15.27;;;5.22;;
32250;SDS011;41295;48.518;9.206;2022-08-26T08:49:02;16.45;;;5.65;;
32250;SDS011;41295;48.518;9.206;2022-08-26T08:51:06;8.80;;;5.93;;
32250;SDS011;41295;48.518;9.206;2022-08-26T08:53:22;9.95;;;5.35;;
32250;SDS011;41295;48.518;9.206;2022-08-26T08:55:33;9.70;;;5.88;;
32250;SDS011;41295;48.518;9.206;2022-08-26T08:57:49;10.73;;;5.15;;
32250;SDS011;41295;48.518;9.206;2022-08-26T09:00:07;12.73;;;5.70;;
32250;SDS011;41295;48.518;9.206;2022-08-26T09:02:13;6.90;;;4.82;;
32250;SDS011;41295;48.518;9.206;2022-08-26T09:04:33;7.22;;;5.35;;
32250;SDS011;41295;48.518;9.206;2022-08-26T09:06:58;9.43;;;5.53;;
32250;SDS011;41295;48.518;9.206;2022-08-26T09:09:04;7.43;;;4.95;;
32250;SDS011;41295;48.518;9.206;2022-08-26T09:11:08;6.50;;;5.20;;
32250;SDS011;41295;48.518;9.206;2022-08-26T09:13:12;10.10;;;5.85;;
32250;SDS011;41295;48.518;9.206;2022-08-26T09:15:26;12.02;;;5.43;;
32250;SDS011;41295;48.518;9.206;2022-08-26T09:17:38;6.30;;;5.60;;
32250;SDS011;41295;48.518;9.206;2022-08-26T09:19:50;7.40;;;5.35;;
32250;SDS011;41295;48.518;9.206;2022-08-26T09:21:56;8.45;;;5.88;;
32250;SDS011;41295;48.518;9.206;2022-08-26T09:23:59;12.50;;;6.05;;
32250;SDS011;41295;48.518;9.206;2022-08-26T09:26:12;7.70;;;5.63;;
32250;SDS011;41295;48.518;9.206;2022-08-26T09:28:19;10.73;;;5.88;;
32250;SDS011;41295;48.518;9.206;2022-08-26T09:30:25;7.30;;;5.25;;
32250;SDS011;41295;48.518;9.206;2022-08-26T09:32:29;9.05;;;6.13;;
32250;SDS011;41295;48.518;9.206;2022-08-26T09:34:32;9.05;;;5.55;;
32250;SDS011;41295;48.518;9.206;2022-08-26T09:36:36;10.20;;;5.40;;
32250;SDS011;41295;48.518;9.206;2022-08-26T09:38:42;8.77;;;4.88;;
32250;SDS011;41295;48.518;9.206;2022-08-26T09:40:52;11.30;;;5.45;;
32250;SDS011;41295;48.518;9.206;2022-08-26T09:43:11;6.53;;;5.68;;
32250;SDS011;41295;48.518;9.206;2022-08-26T09:45:25;12.30;;;5.47;;
32250;SDS011;41295;48.518;9.206;2022-08-26T09:47:31;10.88;;;5.82;;
32250;SDS011;41295;48.518;9.206;2022-08-26T09:49:35;9.07;;;5.20;;
32250;SDS011;41295;48.518;9.206;2022-08-26T09:51:41;12.38;;;5.72;;
32250;SDS011;41295;48.518;9.206;2022-08-26T09:53:50;8.88;;;5.13;;
32250;SDS011;41295;48.518;9.206;2022-08-26T09:56:09;9.80;;;5.85;;
32250;SDS011;41295;48.518;9.206;2022-08-26T09:58:30;7.57;;;5.13;;
32250;SDS011;41295;48.518;9.206;2022-08-26T10:00:35;8.30;;;5.78;;
32250;SDS011;41295;48.518;9.206;2022-08-26T10:02:39;10.38;;;5.75;;
32250;SDS011;41295;48.518;9.206;2022-08-26T10:04:50;8.27;;;5.60;;
32250;SDS011;41295;48.518;9.206;2022-08-26T10:06:56;10.43;;;5.13;;
32250;SDS011;41295;48.518;9.206;2022-08-26T10:09:00;5.68;;;4.72;;
32250;SDS011;41295;48.518;9.206;2022-08-26T10:11:10;14.18;;;5.18;;
32250;SDS011;41295;48.518;9.206;2022-08-26T10:13:23;7.68;;;5.25;;
32250;SDS011;41295;48.518;9.206;2022-08-26T10:15:32;7.97;;;5.38;;
32250;SDS011;41295;48.518;9.206;2022-08-26T10:17:49;9.38;;;5.35;;
32250;SDS011;41295;48.518;9.206;2022-08-26T10:19:58;8.57;;;5.60;;
32250;SDS011;41295;48.518;9.206;2022-08-26T10:22:25;9.35;;;5.10;;
32250;SDS011;41295;48.518;9.206;2022-08-26T10:24:36;9.07;;;5.93;;
32250;SDS011;41295;48.518;9.206;2022-08-26T10:26:44;9.35;;;5.20;;
32250;SDS011;41295;48.518;9.206;2022-08-26T10:29:04;7.45;;;5.60;;
32250;SDS011;41295;48.518;9.206;2022-08-26T10:31:19;7.28;;;5.00;;
32250;SDS011;41295;48.518;9.206;2022-08-26T10:33:28;13.27;;;5.45;;
32250;SDS011;41295;48.518;9.206;2022-08-26T10:35:31;9.43;;;5.85;;
32250;SDS011;41295;48.518;9.206;2022-08-26T10:37:37;14.05;;;6.32;;
32250;SDS011;41295;48.518;9.206;2022-08-26T10:39:44;8.57;;;5.55;;
32250;SDS011;41295;48.518;9.206;2022-08-26T10:42:00;10.35;;;6.07;;
32250;SDS011;41295;48.518;9.206;2022-08-26T10:44:07;11.30;;;6.00;;
32250;SDS011;41295;48.518;9.206;2022-08-26T10:46:14;8.65;;;5.28;;
32250;SDS011;41295;48.518;9.206;2022-08-26T10:48:29;13.13;;;5.53;;
32250;SDS011;41295;48.518;9.206;2022-08-26T10:50:37;12.63;;;6.18;;
32250;SDS011;41295;48.518;9.206;2022-08-26T10:52:46;18.25;;;7.90;;
32250;SDS011;41295;48.518;9.206;2022-08-26T10:54:57;16.23;;;7.57;;
32250;SDS011;41295;48.518;9.206;2022-08-26T10:57:07;14.75;;;6.75;;
32250;SDS011;41295;48.518;9.206;2022-08-26T10:59:22;16.48;;;7.72;;
32250;SDS011;41295;48.518;9.206;2022-08-26T11:01:37;17.98;;;7.20;;
32250;SDS011;41295;48.518;9.206;2022-08-26T11:03:45;18.15;;;7.10;;
32250;SDS011;41295;48.518;9.206;2022-08-26T11:08:28;18.90;;;7.38;;
32250;SDS011;41295;48.518;9.206;2022-08-26T11:13:04;12.10;;;6.85;;
32250;SDS011;41295;48.518;9.206;2022-08-26T11:15:10;16.80;;;6.32;;
32250;SDS011;41295;48.518;9.206;2022-08-26T11:17:15;15.70;;;6.85;;
32250;SDS011;41295;48.518;9.206;2022-08-26T11:20:00;21.90;;;7.35;;
32250;SDS011;41295;48.518;9.206;2022-08-26T11:22:23;12.68;;;6.53;;
32250;SDS011;41295;48.518;9.206;2022-08-26T11:24:38;14.98;;;6.53;;
32250;SDS011;41295;48.518;9.206;2022-08-26T11:26:42;13.90;;;6.85;;
32250;SDS011;41295;48.518;9.206;2022-08-26T11:28:56;15.85;;;6.63;;
32250;SDS011;41295;48.518;9.206;2022-08-26T11:31:07;20.35;;;7.18;;
32250;SDS011;41295;48.518;9.206;2022-08-26T11:36:00;15.55;;;6.80;;
32250;SDS011;41295;48.518;9.206;2022-08-26T11:38:14;13.05;;;6.05;;
32250;SDS011;41295;48.518;9.206;2022-08-26T11:40:20;11.85;;;6.07;;
32250;SDS011;41295;48.518;9.206;2022-08-26T11:42:29;11.95;;;6.07;;
32250;SDS011;41295;48.518;9.206;2022-08-26T11:44:41;11.38;;;5.70;;
32250;SDS011;41295;48.518;9.206;2022-08-26T11:46:55;10.75;;;6.15;;
32250;SDS011;41295;48.518;9.206;2022-08-26T11:49:00;16.48;;;7.28;;
32250;SDS011;41295;48.518;9.206;2022-08-26T11:51:06;14.02;;;6.03;;
32250;SDS011;41295;48.518;9.206;2022-08-26T11:53:16;9.73;;;5.65;;
32250;SDS011;41295;48.518;9.206;2022-08-26T11:55:19;11.45;;;5.30;;
32250;SDS011;41295;48.518;9.206;2022-08-26T11:57:24;11.80;;;5.00;;
32250;SDS011;41295;48.518;9.206;2022-08-26T11:59:28;9.73;;;5.18;;
32250;SDS011;41295;48.518;9.206;2022-08-26T12:01:37;14.15;;;5.30;;
32250;SDS011;41295;48.518;9.206;2022-08-26T12:03:46;13.02;;;5.90;;
32250;SDS011;41295;48.518;9.206;2022-08-26T12:05:51;21.17;;;5.95;;
32250;SDS011;41295;48.518;9.206;2022-08-26T12:07:58;14.38;;;5.45;;
32250;SDS011;41295;48.518;9.206;2022-08-26T12:10:04;11.23;;;5.60;;
32250;SDS011;41295;48.518;9.206;2022-08-26T12:12:09;9.35;;;5.55;;
32250;SDS011;41295;48.518;9.206;2022-08-26T12:14:15;14.45;;;5.18;;
32250;SDS011;41295;48.518;9.206;2022-08-26T12:16:21;10.57;;;4.80;;
32250;SDS011;41295;48.518;9.206;2022-08-26T12:18:31;10.82;;;6.68;;
32250;SDS011;41295;48.518;9.206;2022-08-26T12:20:37;9.68;;;5.18;;
32250;SDS011;41295;48.518;9.206;2022-08-26T12:22:48;12.60;;;4.97;;
32250;SDS011;41295;48.518;9.206;2022-08-26T12:24:52;7.47;;;4.72;;
32250;SDS011;41295;48.518;9.206;2022-08-26T12:27:05;11.10;;;5.28;;
32250;SDS011;41295;48.518;9.206;2022-08-26T12:29:21;15.52;;;5.05;;
32250;SDS011;41295;48.518;9.206;2022-08-26T12:31:29;12.15;;;5.25;;
32250;SDS011;41295;48.518;9.206;2022-08-26T12:33:33;9.25;;;4.65;;
32250;SDS011;41295;48.518;9.206;2022-08-26T12:35:38;10.55;;;5.00;;
32250;SDS011;41295;48.518;9.206;2022-08-26T12:37:42;10.00;;;4.60;;
32250;SDS011;41295;48.518;9.206;2022-08-26T12:39:51;9.65;;;4.63;;
32250;SDS011;41295;48.518;9.206;2022-08-26T12:41:54;12.15;;;4.95;;
32250;SDS011;41295;48.518;9.206;2022-08-26T12:43:58;9.63;;;4.55;;